createdAt,value
2023-05-21T00:01:53.106Z,42.81
2023-05-21T00:04:23.797Z,42.93
2023-05-21T00:06:55.933Z,42.77
2023-05-21T00:09:26.437Z,42.82
2023-05-21T00:11:59.287Z,42.59
2023-05-21T00:14:29.519Z,42.93
2023-05-21T00:17:01.610Z,42.89
2023-05-21T00:19:33.163Z,42.86
2023-05-21T00:22:05.108Z,43.09
2023-05-21T00:24:35.603Z,42.87
2023-05-21T00:27:07.573Z,43.00
2023-05-21T00:29:39.131Z,42.66
2023-05-21T00:32:10.569Z,42.89
2023-05-21T00:34:45.881Z,42.93
2023-05-21T00:37:17.393Z,42.92
2023-05-21T00:39:47.859Z,42.89
2023-05-21T00:42:21.030Z,42.93
2023-05-21T00:44:51.456Z,43.00
2023-05-21T00:47:24.072Z,42.84
2023-05-21T00:49:55.245Z,43.10
2023-05-21T00:52:27.843Z,42.87
2023-05-21T00:54:59.041Z,42.91
2023-05-21T00:57:33.772Z,43.10
2023-05-21T01:00:05.336Z,43.19
2023-05-21T01:02:37.698Z,42.79
2023-05-21T01:05:09.098Z,43.13
2023-05-21T01:07:47.541Z,43.07
2023-05-21T01:10:18.044Z,43.13
2023-05-21T01:12:51.971Z,43.08
2023-05-21T01:15:22.780Z,43.44
2023-05-21T01:17:54.770Z,42.91
2023-05-21T01:20:28.014Z,43.25
2023-05-21T01:23:01.665Z,43.12
2023-05-21T01:25:32.470Z,43.34
2023-05-21T01:28:02.947Z,43.11
2023-05-21T01:30:41.540Z,43.46
2023-05-21T01:33:21.419Z,43.26
2023-05-21T01:36:03.046Z,43.10
2023-05-21T01:38:45.115Z,43.02
2023-05-21T01:41:21.475Z,43.32
2023-05-21T01:43:53.130Z,43.46
2023-05-21T01:46:28.300Z,43.34
2023-05-21T01:49:00.476Z,43.38
2023-05-21T01:51:32.706Z,43.33
2023-05-21T01:54:09.269Z,43.25
2023-05-21T01:56:39.093Z,43.44
2023-05-21T01:59:10.001Z,43.36
2023-05-21T02:01:40.554Z,43.50
2023-05-21T02:04:11.504Z,43.40
2023-05-21T02:06:42.437Z,43.58
2023-05-21T02:09:15.300Z,43.60
2023-05-21T02:11:45.845Z,43.23
2023-05-21T02:14:17.228Z,43.37
2023-05-21T02:16:47.629Z,43.33
2023-05-21T02:19:18.536Z,43.53
2023-05-21T02:21:49.084Z,43.61
2023-05-21T02:24:22.673Z,43.61
2023-05-21T02:26:54.058Z,43.69
2023-05-21T02:29:24.508Z,43.62
2023-05-21T02:31:54.480Z,43.64
2023-05-21T02:34:25.128Z,43.51
2023-05-21T02:36:55.612Z,43.66
2023-05-21T02:39:28.110Z,43.49
2023-05-21T02:41:58.650Z,43.91
2023-05-21T02:44:29.441Z,43.65
2023-05-21T02:47:00.476Z,43.59
2023-05-21T02:49:31.215Z,43.59
2023-05-21T02:52:01.927Z,43.66
2023-05-21T02:54:34.855Z,43.75
2023-05-21T02:57:05.429Z,43.74
2023-05-21T02:59:35.903Z,43.71
2023-05-21T03:02:06.543Z,43.59
2023-05-21T03:04:39.497Z,43.58
2023-05-21T03:07:11.477Z,43.68
2023-05-21T03:09:44.260Z,43.61
2023-05-21T03:12:14.916Z,43.94
2023-05-21T03:14:46.705Z,43.85
2023-05-21T03:17:17.354Z,43.84
2023-05-21T03:19:47.652Z,43.87
2023-05-21T03:22:17.643Z,43.66
2023-05-21T03:24:51.334Z,44.04
2023-05-21T03:27:21.489Z,43.93
2023-05-21T03:29:52.360Z,43.98
2023-05-21T03:32:23.251Z,43.89
2023-05-21T03:34:53.366Z,43.97
2023-05-21T03:37:24.224Z,43.99
2023-05-21T03:39:56.934Z,43.98
2023-05-21T03:42:29.985Z,44.12
2023-05-21T03:45:00.324Z,43.99
2023-05-21T03:47:30.801Z,44.01
2023-05-21T03:50:01.688Z,44.03
2023-05-21T03:52:31.951Z,44.12
2023-05-21T03:55:07.417Z,44.10
2023-05-21T03:57:37.830Z,44.03
2023-05-21T04:00:10.611Z,44.01
2023-05-21T04:02:41.431Z,44.03
2023-05-21T04:05:25.529Z,44.08
2023-05-21T04:07:55.818Z,44.39
2023-05-21T04:10:28.162Z,44.01
2023-05-21T04:12:57.747Z,43.81
2023-05-21T04:15:29.352Z,44.44
2023-05-21T04:17:59.407Z,44.26
2023-05-21T04:20:29.560Z,44.26
2023-05-21T04:23:00.302Z,44.38
2023-05-21T04:25:32.282Z,44.11
2023-05-21T04:28:05.055Z,44.38
2023-05-21T04:30:36.969Z,44.28
2023-05-21T04:33:10.438Z,44.16
2023-05-21T04:35:44.916Z,43.98
2023-05-21T04:38:20.055Z,44.54
2023-05-21T04:40:53.629Z,44.48
2023-05-21T04:43:26.435Z,44.39
2023-05-21T04:45:57.449Z,44.55
2023-05-21T04:48:29.383Z,44.60
2023-05-21T04:51:00.309Z,44.33
2023-05-21T04:53:30.606Z,44.78
2023-05-21T04:56:04.458Z,44.49
2023-05-21T04:58:35.176Z,44.42
2023-05-21T05:01:06.123Z,44.43
2023-05-21T05:03:36.395Z,44.42
2023-05-21T05:06:08.171Z,44.68
2023-05-21T05:08:38.490Z,44.78
2023-05-21T05:11:11.143Z,44.54
2023-05-21T05:13:43.028Z,44.56
2023-05-21T05:16:14.872Z,44.58
2023-05-21T05:18:44.818Z,44.68
2023-05-21T05:21:15.159Z,44.56
2023-05-21T05:23:45.951Z,44.64
2023-05-21T05:26:18.138Z,44.58
2023-05-21T05:28:48.584Z,44.61
2023-05-21T05:31:19.361Z,44.48
2023-05-21T05:33:50.711Z,44.54
2023-05-21T05:36:21.564Z,44.76
2023-05-21T05:38:52.312Z,44.83
2023-05-21T05:41:25.419Z,44.51
2023-05-21T05:43:55.742Z,44.67
2023-05-21T05:46:27.090Z,44.27
2023-05-21T05:48:57.505Z,44.60
2023-05-21T05:51:28.573Z,44.65
2023-05-21T05:53:58.568Z,44.53
2023-05-21T05:56:31.157Z,44.68
2023-05-21T05:59:02.291Z,44.36
2023-05-21T06:01:33.134Z,44.41
2023-05-21T06:04:02.963Z,44.24
2023-05-21T06:06:35.418Z,44.37
2023-05-21T06:09:06.114Z,44.21
2023-05-21T06:11:38.646Z,44.42
2023-05-21T06:14:08.985Z,44.44
2023-05-21T06:16:39.317Z,44.21
2023-05-21T06:19:09.465Z,44.38
2023-05-21T06:21:39.451Z,44.26
2023-05-21T06:24:10.164Z,44.36
2023-05-21T06:26:49.435Z,44.23
2023-05-21T06:29:19.732Z,44.44
2023-05-21T06:31:52.889Z,44.23
2023-05-21T06:34:26.420Z,44.28
2023-05-21T06:36:57.189Z,43.94
2023-05-21T06:39:27.650Z,44.03
2023-05-21T06:41:59.955Z,44.32
2023-05-21T06:44:30.098Z,43.96
2023-05-21T06:47:00.516Z,44.03
2023-05-21T06:49:30.798Z,44.20
2023-05-21T06:52:01.915Z,43.79
2023-05-21T06:54:32.090Z,43.54
2023-05-21T06:57:04.588Z,43.78
2023-05-21T06:59:35.118Z,43.59
2023-05-21T07:02:05.260Z,43.60
2023-05-21T07:04:35.664Z,44.00
2023-05-21T07:07:07.139Z,43.50
2023-05-21T07:09:37.007Z,43.43
2023-05-21T07:12:10.213Z,43.75
2023-05-21T07:14:40.693Z,43.49
2023-05-21T07:17:11.083Z,43.09
2023-05-21T07:19:41.682Z,43.29
2023-05-21T07:22:13.026Z,43.46
2023-05-21T07:24:43.275Z,43.27
2023-05-21T07:27:25.201Z,43.32
2023-05-21T07:29:56.200Z,42.93
2023-05-21T07:32:29.879Z,43.24
2023-05-21T07:35:04.519Z,43.10
2023-05-21T07:37:35.225Z,42.86
2023-05-21T07:40:06.763Z,42.76
2023-05-21T07:42:39.005Z,42.73
2023-05-21T07:45:11.253Z,42.95
2023-05-21T07:47:42.162Z,42.93
2023-05-21T07:50:14.300Z,43.00
2023-05-21T07:52:44.881Z,42.45
2023-05-21T07:55:15.133Z,42.62
2023-05-21T07:57:46.997Z,42.64
2023-05-21T08:00:18.453Z,42.71
2023-05-21T08:02:48.347Z,42.87
2023-05-21T08:05:18.479Z,42.31
2023-05-21T08:07:49.046Z,42.33
2023-05-21T08:10:19.644Z,42.10
2023-05-21T08:12:51.750Z,42.19
2023-05-21T08:15:22.205Z,42.43
2023-05-21T08:17:52.750Z,42.32
2023-05-21T08:20:22.885Z,41.95
2023-05-21T08:22:54.011Z,42.05
2023-05-21T08:25:24.349Z,42.23
2023-05-21T08:27:56.880Z,41.67
2023-05-21T08:30:27.469Z,42.19
2023-05-21T08:32:57.922Z,41.64
2023-05-21T08:35:28.059Z,41.94
2023-05-21T08:37:57.888Z,41.27
2023-05-21T08:40:28.400Z,41.35
2023-05-21T08:43:00.828Z,41.76
2023-05-21T08:45:39.013Z,41.70
2023-05-21T08:48:12.306Z,41.47
2023-05-21T08:50:44.001Z,41.39
2023-05-21T08:53:23.953Z,40.95
2023-05-21T08:56:02.107Z,41.50
2023-05-21T08:58:35.482Z,41.06
2023-05-21T09:01:07.555Z,40.93
2023-05-21T09:03:42.698Z,41.02
2023-05-21T09:06:16.761Z,41.26
2023-05-21T09:08:51.708Z,41.41
2023-05-21T09:11:22.528Z,41.14
2023-05-21T09:13:58.314Z,41.50
2023-05-21T09:16:28.864Z,41.22
2023-05-21T09:18:58.958Z,41.04
2023-05-21T09:21:30.985Z,41.23
2023-05-21T09:24:03.567Z,41.11
2023-05-21T09:26:34.753Z,41.38
2023-05-21T09:29:07.979Z,41.10
2023-05-21T09:31:38.887Z,41.59
2023-05-21T09:34:10.142Z,41.04
2023-05-21T09:36:41.508Z,41.56
2023-05-21T09:39:16.667Z,41.45
2023-05-21T09:41:47.474Z,41.54
2023-05-21T09:44:19.837Z,41.00
2023-05-21T09:46:50.411Z,41.27
2023-05-21T09:49:28.596Z,40.77
2023-05-21T09:52:00.067Z,41.20
2023-05-21T09:54:36.895Z,40.92
2023-05-21T09:57:07.778Z,41.28
2023-05-21T09:59:44.037Z,41.15
2023-05-21T10:02:27.397Z,40.61
2023-05-21T10:05:00.969Z,40.70
2023-05-21T10:07:32.263Z,40.61
2023-05-21T10:10:05.949Z,40.57
2023-05-21T10:12:38.640Z,40.71
2023-05-21T10:15:17.371Z,40.91
2023-05-21T10:17:49.286Z,40.83
2023-05-21T10:20:21.540Z,40.73
2023-05-21T10:22:53.455Z,40.84
2023-05-21T10:25:26.115Z,41.10
2023-05-21T10:27:59.701Z,41.01
2023-05-21T10:30:34.100Z,40.74
2023-05-21T10:33:06.817Z,40.58
2023-05-21T10:35:39.200Z,40.75
2023-05-21T10:38:12.806Z,40.90
2023-05-21T10:40:42.827Z,40.55
2023-05-21T10:43:53.582Z,40.54
2023-05-21T10:47:22.534Z,40.28
2023-05-21T10:50:18.623Z,40.40
2023-05-21T10:53:10.587Z,40.41
2023-05-21T10:55:58.886Z,40.56
2023-05-21T10:59:07.686Z,40.31
2023-05-21T11:01:43.740Z,40.69
2023-05-21T11:04:16.105Z,40.43
2023-05-21T11:06:51.036Z,39.87
2023-05-21T11:09:21.564Z,40.21
2023-05-21T11:11:54.795Z,39.99
2023-05-21T11:14:39.828Z,40.52
2023-05-21T11:17:38.306Z,40.57
2023-05-21T11:20:14.570Z,40.25
2023-05-21T11:22:44.891Z,40.43
2023-05-21T11:25:15.900Z,40.24
2023-05-21T11:27:45.510Z,40.50
2023-05-21T11:30:22.165Z,40.49
2023-05-21T11:33:30.908Z,40.66
2023-05-21T11:36:02.189Z,40.61
2023-05-21T11:38:34.537Z,40.57
2023-05-21T11:41:08.005Z,39.86
2023-05-21T11:43:43.760Z,40.51
2023-05-21T11:46:17.425Z,40.51
2023-05-21T11:48:52.571Z,40.32
2023-05-21T11:51:24.351Z,40.33
2023-05-21T11:53:54.479Z,40.50
2023-05-21T11:56:25.663Z,40.47
2023-05-21T11:59:01.119Z,40.43
2023-05-21T12:01:32.199Z,40.01
2023-05-21T12:04:06.944Z,40.25
2023-05-21T12:06:38.818Z,40.50
2023-05-21T12:09:10.837Z,39.50
2023-05-21T12:11:41.889Z,40.10
2023-05-21T12:14:13.111Z,39.74
2023-05-21T12:16:43.598Z,40.04
2023-05-21T12:19:20.672Z,40.14
2023-05-21T12:21:52.032Z,39.69
2023-05-21T12:24:22.371Z,40.30
2023-05-21T12:26:53.086Z,39.70
2023-05-21T12:29:23.906Z,39.84
2023-05-21T12:31:54.461Z,39.83
2023-05-21T12:34:51.637Z,40.08
2023-05-21T12:37:26.646Z,40.19
2023-05-21T12:40:00.516Z,40.09
2023-05-21T12:42:35.334Z,39.93
2023-05-21T12:45:11.042Z,39.71
2023-05-21T12:47:41.730Z,39.81
2023-05-21T12:50:16.885Z,39.59
2023-05-21T12:52:47.834Z,40.22
2023-05-21T12:55:19.368Z,40.14
2023-05-21T12:57:49.613Z,39.84
2023-05-21T13:00:27.262Z,39.76
2023-05-21T13:03:00.508Z,39.70
2023-05-21T13:05:32.976Z,39.87
2023-05-21T13:08:02.746Z,40.13
2023-05-21T13:10:33.204Z,39.61
2023-05-21T13:13:03.629Z,40.23
2023-05-21T13:15:33.721Z,40.01
2023-05-21T13:18:04.406Z,39.46
2023-05-21T13:20:37.161Z,40.29
2023-05-21T13:23:10.569Z,40.10
2023-05-21T13:25:41.480Z,40.36
2023-05-21T13:28:15.597Z,39.79
2023-05-21T13:30:46.064Z,40.21
2023-05-21T13:33:16.622Z,40.22
2023-05-21T13:35:51.718Z,39.72
2023-05-21T13:38:22.307Z,40.23
2023-05-21T13:40:52.579Z,39.89
2023-05-21T13:43:23.178Z,39.87
2023-05-21T13:45:54.176Z,39.89
2023-05-21T13:48:24.569Z,40.05
2023-05-21T13:50:57.174Z,40.02
2023-05-21T13:53:27.766Z,40.11
2023-05-21T13:55:58.066Z,39.72
2023-05-21T13:58:34.962Z,40.38
2023-05-21T14:01:06.416Z,40.15
2023-05-21T14:03:37.289Z,39.85
2023-05-21T14:06:15.659Z,40.02
2023-05-21T14:08:46.551Z,40.27
2023-05-21T14:11:26.881Z,40.18
2023-05-21T14:13:58.455Z,39.62
2023-05-21T14:16:35.652Z,40.22
2023-05-21T14:19:09.342Z,40.14
2023-05-21T14:21:43.790Z,40.00
2023-05-21T14:24:14.867Z,40.25
2023-05-21T14:26:52.340Z,40.03
2023-05-21T14:29:25.563Z,39.81
2023-05-21T14:32:04.558Z,39.94
2023-05-21T14:34:35.444Z,39.85
2023-05-21T14:37:11.527Z,39.85
2023-05-21T14:39:49.770Z,40.34
2023-05-21T14:42:20.965Z,39.91
2023-05-21T14:44:52.336Z,40.01
2023-05-21T14:47:22.800Z,39.57
2023-05-21T14:49:53.219Z,40.36
2023-05-21T14:52:26.059Z,40.18
2023-05-21T14:55:00.530Z,39.98
2023-05-21T14:57:44.213Z,40.32
2023-05-21T15:00:20.645Z,40.01
2023-05-21T15:02:57.571Z,40.22
2023-05-21T15:05:36.393Z,40.40
2023-05-21T15:13:39.995Z,40.12
2023-05-21T15:17:20.998Z,40.34
2023-05-21T15:19:55.539Z,40.24
2023-05-21T15:22:29.569Z,40.06
2023-05-21T15:25:02.131Z,40.19
2023-05-21T15:27:32.770Z,40.16
2023-05-21T15:30:10.504Z,39.93
2023-05-21T15:32:41.155Z,39.81
2023-05-21T15:35:13.598Z,40.22
2023-05-21T15:37:44.060Z,39.98
2023-05-21T15:40:16.370Z,40.24
2023-05-21T15:42:46.423Z,40.26
2023-05-21T15:45:19.097Z,40.02
2023-05-21T15:47:54.602Z,39.86
2023-05-21T15:50:25.228Z,39.81
2023-05-21T15:52:55.283Z,40.43
2023-05-21T15:55:25.792Z,40.34
2023-05-21T15:58:12.325Z,40.16
2023-05-21T16:00:47.897Z,40.12
2023-05-21T16:03:17.972Z,40.50
2023-05-21T16:05:47.789Z,40.37
2023-05-21T16:08:17.793Z,40.14
2023-05-21T16:10:48.155Z,40.38
2023-05-21T16:13:23.088Z,40.02
2023-05-21T16:15:55.284Z,40.26
2023-05-21T16:18:26.682Z,40.12
2023-05-21T16:20:59.177Z,40.10
2023-05-21T16:23:29.834Z,40.60
2023-05-21T16:26:00.140Z,40.31
2023-05-21T16:28:33.025Z,40.72
2023-05-21T16:31:05.299Z,40.50
2023-05-21T16:33:35.550Z,40.05
2023-05-21T16:36:08.731Z,40.20
2023-05-21T16:38:38.673Z,40.43
2023-05-21T16:41:09.049Z,40.60
2023-05-21T16:43:39.322Z,39.95
2023-05-21T16:46:11.782Z,40.67
2023-05-21T16:48:43.161Z,40.01
2023-05-21T16:51:13.192Z,40.08
2023-05-21T16:53:43.226Z,40.06
2023-05-21T16:56:13.735Z,40.58
2023-05-21T16:58:47.570Z,40.50
2023-05-21T17:01:19.902Z,40.31
2023-05-21T17:03:50.340Z,40.16
2023-05-21T17:06:20.837Z,40.63
2023-05-21T17:08:51.557Z,40.45
2023-05-21T17:11:22.142Z,40.35
2023-05-21T17:13:52.672Z,40.54
2023-05-21T17:16:27.135Z,40.46
2023-05-21T17:18:57.685Z,40.34
2023-05-21T17:21:28.684Z,40.32
2023-05-21T17:23:58.293Z,40.11
2023-05-21T17:26:29.299Z,40.41
2023-05-21T17:28:59.798Z,40.54
2023-05-21T17:31:44.360Z,40.30
2023-05-21T17:34:15.462Z,40.29
2023-05-21T17:37:06.619Z,40.67
2023-05-21T17:39:39.739Z,40.12
2023-05-21T17:42:12.032Z,40.61
2023-05-21T17:44:50.346Z,40.55
2023-05-21T17:47:23.251Z,40.59
2023-05-21T17:49:53.716Z,40.35
2023-05-21T17:52:24.157Z,40.62
2023-05-21T17:54:54.579Z,40.23
2023-05-21T17:57:25.051Z,40.18
2023-05-21T17:59:56.688Z,40.47
2023-05-21T18:02:32.195Z,40.80
2023-05-21T18:05:05.369Z,40.66
2023-05-21T18:07:37.197Z,40.84
2023-05-21T18:10:08.535Z,40.92
2023-05-21T18:12:39.366Z,40.49
2023-05-21T18:15:10.704Z,40.49
2023-05-21T18:17:58.825Z,41.05
2023-05-21T18:20:30.554Z,40.79
2023-05-21T18:23:00.900Z,40.60
2023-05-21T18:25:31.498Z,40.64
2023-05-21T18:28:02.586Z,40.29
2023-05-21T18:30:33.016Z,40.78
2023-05-21T18:33:04.884Z,40.66
2023-05-21T18:35:35.490Z,40.75
2023-05-21T18:38:10.574Z,40.86
2023-05-21T18:40:41.407Z,41.04
2023-05-21T18:43:17.561Z,40.93
2023-05-21T18:45:49.647Z,41.02
2023-05-21T18:48:25.069Z,40.56
2023-05-21T18:50:59.745Z,41.04
2023-05-21T18:53:33.464Z,40.77
2023-05-21T18:56:05.493Z,40.66
2023-05-21T18:58:36.579Z,41.19
2023-05-21T19:01:11.604Z,41.06
2023-05-21T19:03:44.940Z,40.80
2023-05-21T19:06:16.099Z,40.66
2023-05-21T19:08:47.081Z,40.88
2023-05-21T19:11:19.148Z,40.97
2023-05-21T19:13:49.557Z,40.83
2023-05-21T19:16:19.429Z,40.66
2023-05-21T19:18:51.932Z,40.87
2023-05-21T19:21:32.173Z,40.84
2023-05-21T19:24:05.827Z,41.26
2023-05-21T19:26:36.782Z,41.48
2023-05-21T19:29:07.431Z,41.30
2023-05-21T19:31:45.514Z,41.06
2023-05-21T19:34:37.981Z,41.39
2023-05-21T19:37:09.680Z,41.28
2023-05-21T19:39:46.007Z,41.44
2023-05-21T19:42:18.297Z,40.84
2023-05-21T19:44:49.024Z,41.09
2023-05-21T19:47:19.292Z,41.05
2023-05-21T19:49:56.588Z,41.13
2023-05-21T19:52:38.000Z,41.11
2023-05-21T19:55:20.983Z,40.95
2023-05-21T19:57:51.890Z,40.93
2023-05-21T20:00:59.628Z,41.45
2023-05-21T20:06:58.954Z,41.16
2023-05-21T20:09:29.372Z,41.24
2023-05-21T20:11:59.816Z,41.67
2023-05-21T20:14:29.960Z,41.40
2023-05-21T20:17:16.750Z,41.58
2023-05-21T20:19:48.404Z,41.57
2023-05-21T20:22:25.046Z,41.42
2023-05-21T20:24:56.263Z,41.61
2023-05-21T20:27:26.855Z,41.44
2023-05-21T20:29:56.663Z,41.34
2023-05-21T20:32:29.468Z,41.35
2023-05-21T20:35:03.398Z,41.62
2023-05-21T20:37:37.404Z,41.66
2023-05-21T20:40:13.444Z,41.30
2023-05-21T20:42:45.634Z,41.57
2023-05-21T20:45:16.245Z,41.26
2023-05-21T20:47:48.343Z,41.71
2023-05-21T20:50:22.070Z,41.78
2023-05-21T20:52:55.046Z,41.25
2023-05-21T20:55:25.014Z,41.60
2023-05-21T20:57:55.132Z,41.73
2023-05-21T21:00:25.301Z,41.84
2023-05-21T21:02:55.216Z,41.75
2023-05-21T21:05:26.652Z,41.34
2023-05-21T21:08:08.460Z,41.41
2023-05-21T21:10:42.841Z,41.40
2023-05-21T21:13:34.614Z,41.53
2023-05-21T21:16:26.730Z,41.37
2023-05-21T21:19:01.200Z,41.34
2023-05-21T21:21:41.100Z,41.10
2023-05-21T21:24:17.180Z,41.94
2023-05-21T21:26:53.178Z,41.39
2023-05-21T21:29:29.410Z,41.33
2023-05-21T21:32:11.164Z,41.28
2023-05-21T21:34:44.220Z,41.28
2023-05-21T21:37:24.875Z,41.56
2023-05-21T21:40:04.850Z,41.17
2023-05-21T21:42:57.752Z,41.47
2023-05-21T21:45:35.822Z,41.20
2023-05-21T21:48:13.323Z,41.26
2023-05-21T21:50:56.675Z,41.08
2023-05-21T21:53:31.010Z,41.20
2023-05-21T21:56:13.120Z,41.10
2023-05-21T21:58:48.195Z,41.17
2023-05-21T22:01:37.684Z,41.49
2023-05-21T22:04:23.403Z,41.53
2023-05-21T22:07:11.570Z,41.81
2023-05-21T22:09:44.662Z,41.45
2023-05-21T22:12:17.803Z,41.10
2023-05-21T22:14:47.694Z,40.94
2023-05-21T22:17:18.163Z,41.33
2023-05-21T22:19:48.005Z,41.13
2023-05-21T22:22:18.513Z,41.58
2023-05-21T22:24:48.947Z,40.89
2023-05-21T22:27:21.683Z,41.14
2023-05-21T22:29:52.066Z,40.88
2023-05-21T22:32:22.957Z,40.77
2023-05-21T22:34:53.404Z,40.52
2023-05-21T22:37:23.951Z,40.26
2023-05-21T22:39:54.384Z,40.41
2023-05-21T22:42:26.101Z,40.23
2023-05-21T22:44:56.539Z,40.75
2023-05-21T22:47:26.990Z,40.57
2023-05-21T22:49:58.802Z,40.28
2023-05-21T22:52:29.854Z,40.04
2023-05-21T22:55:01.531Z,39.91
2023-05-21T22:57:33.808Z,39.99
2023-05-21T23:00:04.743Z,40.21
2023-05-21T23:02:37.845Z,39.73
2023-05-21T23:05:09.347Z,39.27
2023-05-21T23:07:40.000Z,39.54
2023-05-21T23:10:11.466Z,39.24
2023-05-21T23:12:43.839Z,39.15
2023-05-21T23:15:15.363Z,39.10
2023-05-21T23:17:46.341Z,39.30
2023-05-21T23:20:18.145Z,39.17
2023-05-21T23:22:52.275Z,38.70
2023-05-21T23:25:22.679Z,38.97
2023-05-21T23:27:54.070Z,38.72
2023-05-21T23:30:24.426Z,38.39
2023-05-21T23:32:54.822Z,38.39
2023-05-21T23:35:24.688Z,38.52
2023-05-21T23:37:58.730Z,38.11
2023-05-21T23:40:28.399Z,38.51
2023-05-21T23:43:00.963Z,38.51
2023-05-21T23:45:31.625Z,38.56
2023-05-21T23:48:01.813Z,38.28
2023-05-21T23:50:32.372Z,38.32
2023-05-21T23:53:02.419Z,38.35
2023-05-21T23:55:32.521Z,38.16
2023-05-21T23:58:04.932Z,38.29
